createdAt,value
2019-02-05T00:00:25.333Z,1015.17
2019-02-05T00:01:25.323Z,1015.18
2019-02-05T00:03:25.307Z,1015.21
2019-02-05T00:04:25.291Z,1015.21
2019-02-05T00:05:25.284Z,1015.19
2019-02-05T00:07:25.261Z,1015.19
2019-02-05T00:08:25.251Z,1015.18
2019-02-05T00:09:25.247Z,1015.29
2019-02-05T00:10:25.231Z,1015.22
2019-02-05T00:11:25.221Z,1015.25
2019-02-05T00:12:25.210Z,1015.27
2019-02-05T00:13:25.196Z,1015.25
2019-02-05T00:14:25.190Z,1015.38
2019-02-05T00:15:25.174Z,1015.30
2019-02-05T00:16:25.170Z,1015.31
2019-02-05T00:17:25.155Z,1015.27
2019-02-05T00:18:25.143Z,1015.24
2019-02-05T00:19:25.135Z,1015.25
2019-02-05T00:20:25.128Z,1015.28
2019-02-05T00:21:25.116Z,1015.27
2019-02-05T00:23:25.089Z,1015.52
2019-02-05T00:24:25.077Z,1015.49
2019-02-05T00:26:25.056Z,1015.47
2019-02-05T00:27:25.046Z,1015.44
2019-02-05T00:30:25.016Z,1015.60
2019-02-05T00:31:25.010Z,1015.60
2019-02-05T00:33:24.986Z,1015.57
2019-02-05T00:34:24.972Z,1015.59
2019-02-05T00:35:24.960Z,1015.57
2019-02-05T00:36:24.950Z,1015.56
2019-02-05T00:37:24.938Z,1015.51
2019-02-05T00:38:24.932Z,1015.50
2019-02-05T00:39:24.922Z,1015.58
2019-02-05T00:40:24.910Z,1015.54
2019-02-05T00:42:24.891Z,1015.63
2019-02-05T00:44:24.870Z,1015.65
2019-02-05T00:45:24.853Z,1015.57
2019-02-05T00:46:24.843Z,1015.58
2019-02-05T00:47:24.832Z,1015.55
2019-02-05T00:48:24.827Z,1015.54
2019-02-05T00:49:24.817Z,1015.61
2019-02-05T00:50:24.804Z,1015.62
2019-02-05T00:51:24.793Z,1015.60
2019-02-05T00:52:24.784Z,1015.58
2019-02-05T00:53:24.769Z,1015.58
2019-02-05T00:54:24.763Z,1015.55
2019-02-05T00:55:24.748Z,1015.59
2019-02-05T00:56:24.741Z,1015.60
2019-02-05T00:57:24.734Z,1015.58
2019-02-05T00:58:24.924Z,1015.58
2019-02-05T00:59:24.712Z,1015.61
2019-02-05T01:00:24.702Z,1015.66
2019-02-05T01:01:24.685Z,1015.65
2019-02-05T01:02:24.672Z,1015.70
2019-02-05T01:03:24.675Z,1015.70
2019-02-05T01:04:24.658Z,1015.75
2019-02-05T01:05:24.651Z,1015.75
2019-02-05T01:06:24.629Z,1015.76
2019-02-05T01:07:24.619Z,1015.73
2019-02-05T01:08:24.608Z,1015.76
2019-02-05T01:09:24.598Z,1015.81
2019-02-05T01:10:24.590Z,1015.78
2019-02-05T01:11:24.579Z,1015.78
2019-02-05T01:12:24.570Z,1015.79
2019-02-05T01:13:24.560Z,1015.71
2019-02-05T01:14:24.548Z,1015.70
2019-02-05T01:15:24.542Z,1015.64
2019-02-05T01:16:24.530Z,1015.66
2019-02-05T01:17:24.511Z,1015.62
2019-02-05T01:18:24.504Z,1015.57
2019-02-05T01:19:24.499Z,1015.62
2019-02-05T01:20:24.482Z,1015.65
2019-02-05T01:21:24.471Z,1015.64
2019-02-05T01:22:24.458Z,1015.63
2019-02-05T01:23:24.455Z,1015.73
2019-02-05T01:24:24.441Z,1015.61
2019-02-05T01:25:24.632Z,1015.61
2019-02-05T01:26:29.336Z,1015.57
2019-02-05T01:27:24.408Z,1015.63
2019-02-05T01:28:24.401Z,1015.63
2019-02-05T01:29:24.386Z,1015.59
2019-02-05T01:31:24.366Z,1015.59
2019-02-05T01:32:24.351Z,1015.61
2019-02-05T01:33:24.351Z,1015.56
2019-02-05T01:34:24.338Z,1015.53
2019-02-05T01:35:24.323Z,1015.56
2019-02-05T01:36:24.314Z,1015.55
2019-02-05T01:37:24.307Z,1015.58
2019-02-05T01:38:24.296Z,1015.59
2019-02-05T01:39:24.285Z,1015.58
2019-02-05T01:40:24.275Z,1015.59
2019-02-05T01:41:24.263Z,1015.59
2019-02-05T01:42:24.249Z,1015.67
2019-02-05T01:43:24.236Z,1015.58
2019-02-05T01:44:24.228Z,1015.59
2019-02-05T01:45:24.213Z,1015.61
2019-02-05T01:46:24.210Z,1015.56
2019-02-05T01:47:24.195Z,1015.70
2019-02-05T01:48:24.189Z,1015.68
2019-02-05T01:49:24.170Z,1015.69
2019-02-05T01:50:24.167Z,1015.66
2019-02-05T01:51:24.149Z,1015.71
2019-02-05T01:52:24.141Z,1015.73
2019-02-05T01:53:24.134Z,1015.65
2019-02-05T01:54:24.124Z,1015.73
2019-02-05T01:55:24.114Z,1015.70
2019-02-05T01:56:24.097Z,1015.72
2019-02-05T01:57:24.089Z,1015.73
2019-02-05T01:58:24.077Z,1015.75
2019-02-05T01:59:24.064Z,1015.85
2019-02-05T02:00:24.052Z,1015.83
2019-02-05T02:01:24.049Z,1015.81
2019-02-05T02:02:24.038Z,1015.76
2019-02-05T02:03:24.026Z,1015.74
2019-02-05T02:04:24.011Z,1015.75
2019-02-05T02:05:24.008Z,1015.75
2019-02-05T02:06:23.989Z,1015.71
2019-02-05T02:08:23.970Z,1015.66
2019-02-05T02:09:23.965Z,1015.65
2019-02-05T02:10:24.151Z,1015.66
2019-02-05T02:11:23.937Z,1015.67
2019-02-05T02:12:23.924Z,1015.73
2019-02-05T02:13:23.915Z,1015.74
2019-02-05T02:14:23.910Z,1015.70
2019-02-05T02:15:23.894Z,1015.65
2019-02-05T02:16:23.889Z,1015.67
2019-02-05T02:17:23.878Z,1015.70
2019-02-05T02:18:23.864Z,1015.73
2019-02-05T02:19:23.855Z,1015.71
2019-02-05T02:20:23.842Z,1015.66
2019-02-05T02:21:23.827Z,1015.68
2019-02-05T02:22:23.821Z,1015.77
2019-02-05T02:24:23.798Z,1015.70
2019-02-05T02:25:23.783Z,1015.64
2019-02-05T02:26:23.779Z,1015.62
2019-02-05T02:27:23.762Z,1015.61
2019-02-05T02:28:23.761Z,1015.57
2019-02-05T02:29:23.748Z,1015.59
2019-02-05T02:30:23.730Z,1015.58
2019-02-05T02:31:23.720Z,1015.61
2019-02-05T02:32:23.716Z,1015.64
2019-02-05T02:33:23.701Z,1015.67
2019-02-05T02:34:23.694Z,1015.63
2019-02-05T02:35:23.690Z,1015.69
2019-02-05T02:36:23.671Z,1015.71
2019-02-05T02:37:23.658Z,1015.65
2019-02-05T02:38:23.652Z,1015.64
2019-02-05T02:39:23.643Z,1015.65
2019-02-05T02:40:23.629Z,1015.67
2019-02-05T02:42:23.604Z,1015.71
2019-02-05T02:43:23.600Z,1015.74
2019-02-05T02:44:23.587Z,1015.74
2019-02-05T02:45:23.777Z,1015.77
2019-02-05T02:46:23.559Z,1015.76
2019-02-05T02:47:23.561Z,1015.81
2019-02-05T02:48:23.540Z,1015.92
2019-02-05T02:49:23.535Z,1015.77
2019-02-05T02:50:23.522Z,1015.78
2019-02-05T02:51:23.507Z,1015.80
2019-02-05T02:52:23.507Z,1015.86
2019-02-05T02:53:23.493Z,1015.85
2019-02-05T02:55:23.464Z,1015.84
2019-02-05T02:57:23.449Z,1015.88
2019-02-05T02:58:23.440Z,1015.87
2019-02-05T02:59:23.434Z,1015.84
2019-02-05T03:00:23.415Z,1015.80
2019-02-05T03:01:23.401Z,1015.90
2019-02-05T03:02:23.399Z,1015.80
2019-02-05T03:03:23.385Z,1015.78
2019-02-05T03:04:23.380Z,1015.76
2019-02-05T03:05:23.367Z,1015.81
2019-02-05T03:06:23.353Z,1015.79
2019-02-05T03:07:23.338Z,1015.73
2019-02-05T03:08:23.339Z,1015.71
2019-02-05T03:09:23.319Z,1015.70
2019-02-05T03:10:23.311Z,1015.76
2019-02-05T03:11:23.301Z,1015.78
2019-02-05T03:12:23.287Z,1015.75
2019-02-05T03:13:23.282Z,1015.77
2019-02-05T03:14:23.268Z,1015.79
2019-02-05T03:15:23.464Z,1015.81
2019-02-05T03:16:23.243Z,1015.85
2019-02-05T03:17:23.235Z,1015.81
2019-02-05T03:18:23.228Z,1015.79
2019-02-05T03:19:23.219Z,1015.85
2019-02-05T03:20:23.236Z,1015.86
2019-02-05T03:21:23.196Z,1015.93
2019-02-05T03:22:23.189Z,1015.87
2019-02-05T03:23:23.172Z,1015.87
2019-02-05T03:24:23.169Z,1015.86
2019-02-05T03:25:23.160Z,1015.89
2019-02-05T03:26:23.147Z,1015.90
2019-02-05T03:27:23.135Z,1015.88
2019-02-05T03:28:23.120Z,1015.87
2019-02-05T03:29:23.112Z,1015.88
2019-02-05T03:30:23.114Z,1015.87
2019-02-05T03:31:23.096Z,1015.93
2019-02-05T03:32:23.108Z,1015.99
2019-02-05T03:33:23.073Z,1015.93
2019-02-05T03:34:23.057Z,1015.94
2019-02-05T03:35:23.055Z,1015.92
2019-02-05T03:36:23.042Z,1016.01
2019-02-05T03:37:23.028Z,1016.02
2019-02-05T03:38:23.017Z,1016.02
2019-02-05T03:39:23.010Z,1016.01
2019-02-05T03:40:23.000Z,1016.00
2019-02-05T03:41:22.987Z,1016.06
2019-02-05T03:42:22.985Z,1016.04
2019-02-05T03:43:22.974Z,1016.04
2019-02-05T03:44:22.967Z,1016.06
2019-02-05T03:45:22.945Z,1016.06
2019-02-05T03:47:22.929Z,1016.05
2019-02-05T03:48:22.919Z,1016.03
2019-02-05T03:49:22.907Z,1016.03
2019-02-05T03:50:22.902Z,1016.04
2019-02-05T03:51:22.885Z,1016.05
2019-02-05T03:52:22.873Z,1016.02
2019-02-05T03:53:22.868Z,1016.04
2019-02-05T03:54:22.867Z,1016.06
2019-02-05T03:55:22.848Z,1016.03
2019-02-05T03:57:30.712Z,1016.03
2019-02-05T03:58:22.819Z,1016.02
2019-02-05T03:59:22.801Z,1015.95
2019-02-05T04:00:22.792Z,1015.99
2019-02-05T04:01:22.780Z,1015.95
2019-02-05T04:02:22.777Z,1015.97
2019-02-05T04:03:22.768Z,1016.00
2019-02-05T04:04:22.753Z,1015.99
2019-02-05T04:05:22.747Z,1015.96
2019-02-05T04:06:22.733Z,1016.00
2019-02-05T04:08:22.918Z,1015.96
2019-02-05T04:09:22.710Z,1015.97
2019-02-05T04:10:22.689Z,1015.94
2019-02-05T04:11:22.686Z,1015.91
2019-02-05T04:12:22.670Z,1015.92
2019-02-05T04:13:22.659Z,1015.92
2019-02-05T04:14:22.654Z,1015.95
2019-02-05T04:15:22.642Z,1015.88
2019-02-05T04:16:22.638Z,1015.89
2019-02-05T04:17:22.616Z,1015.86
2019-02-05T04:18:22.614Z,1015.88
2019-02-05T04:19:22.600Z,1015.87
2019-02-05T04:20:22.592Z,1015.91
2019-02-05T04:21:22.577Z,1016.06
2019-02-05T04:22:22.572Z,1015.99
2019-02-05T04:23:22.563Z,1015.96
2019-02-05T04:24:22.555Z,1015.95
2019-02-05T04:25:22.538Z,1015.94
2019-02-05T04:26:22.529Z,1016.02
2019-02-05T04:27:22.523Z,1015.90
2019-02-05T04:28:22.509Z,1015.86
2019-02-05T04:29:22.695Z,1015.87
2019-02-05T04:30:22.638Z,1015.92
2019-02-05T04:31:22.473Z,1015.95
2019-02-05T04:33:22.468Z,1015.95
2019-02-05T04:34:22.446Z,1016.02
2019-02-05T04:35:22.431Z,1016.01
2019-02-05T04:36:22.421Z,1016.00
2019-02-05T04:37:22.418Z,1016.10
2019-02-05T04:38:22.407Z,1016.08
2019-02-05T04:39:22.397Z,1016.09
2019-02-05T04:40:22.385Z,1016.10
2019-02-05T04:41:22.370Z,1016.12
2019-02-05T04:42:22.359Z,1016.11
2019-02-05T04:43:22.351Z,1016.08
2019-02-05T04:44:22.346Z,1016.04
2019-02-05T04:45:33.693Z,1016.10
2019-02-05T04:46:22.321Z,1016.08
2019-02-05T04:47:22.312Z,1016.03
2019-02-05T04:48:22.305Z,1016.01
2019-02-05T04:49:22.287Z,1016.07
2019-02-05T04:50:22.280Z,1016.04
2019-02-05T04:52:22.281Z,1016.07
2019-02-05T04:53:22.247Z,1016.08
2019-02-05T04:54:22.238Z,1016.08
2019-02-05T04:55:22.224Z,1016.05
2019-02-05T04:56:22.217Z,1016.09
2019-02-05T04:57:22.208Z,1016.14
2019-02-05T04:58:22.200Z,1016.14
2019-02-05T05:00:22.254Z,1016.20
2019-02-05T05:01:22.166Z,1016.17
2019-02-05T05:02:22.153Z,1016.21
2019-02-05T05:03:22.149Z,1016.15
2019-02-05T05:04:22.131Z,1016.14
2019-02-05T05:06:22.110Z,1016.17
2019-02-05T05:07:22.100Z,1016.16
2019-02-05T05:08:22.092Z,1016.20
2019-02-05T05:09:22.084Z,1016.15
2019-02-05T05:10:22.080Z,1016.15
2019-02-05T05:11:22.064Z,1016.16
2019-02-05T05:12:22.061Z,1016.18
2019-02-05T05:13:22.047Z,1016.19
2019-02-05T05:14:22.034Z,1016.22
2019-02-05T05:15:22.019Z,1016.24
2019-02-05T05:16:22.015Z,1016.24
2019-02-05T05:17:22.208Z,1016.19
2019-02-05T05:18:21.990Z,1016.22
2019-02-05T05:19:22.186Z,1016.17
2019-02-05T05:20:21.972Z,1016.22
2019-02-05T05:21:21.958Z,1016.18
2019-02-05T05:22:21.955Z,1016.20
2019-02-05T05:23:21.936Z,1016.24
2019-02-05T05:24:21.931Z,1016.25
2019-02-05T05:25:21.926Z,1016.19
2019-02-05T05:26:21.914Z,1016.14
2019-02-05T05:27:22.104Z,1016.12
2019-02-05T05:28:21.904Z,1016.08
2019-02-05T05:29:21.873Z,1016.08
2019-02-05T05:30:21.866Z,1016.08
2019-02-05T05:32:21.848Z,1016.18
2019-02-05T05:33:22.039Z,1016.07
2019-02-05T05:34:21.945Z,1016.16
2019-02-05T05:35:21.818Z,1016.13
2019-02-05T05:36:21.804Z,1016.18
2019-02-05T05:37:21.802Z,1016.16
2019-02-05T05:38:21.790Z,1016.19
2019-02-05T05:39:21.779Z,1016.16
2019-02-05T05:41:21.758Z,1016.25
2019-02-05T05:42:21.747Z,1016.27
2019-02-05T05:43:21.731Z,1016.27
2019-02-05T05:44:54.937Z,1016.29
2019-02-05T05:45:21.715Z,1016.31
2019-02-05T05:46:21.703Z,1016.34
2019-02-05T05:47:21.697Z,1016.38
2019-02-05T05:48:21.688Z,1016.41
2019-02-05T05:49:21.694Z,1016.39
2019-02-05T05:50:21.711Z,1016.41
2019-02-05T05:51:21.655Z,1016.39
2019-02-05T05:52:21.639Z,1016.40
2019-02-05T05:53:21.628Z,1016.42
2019-02-05T05:54:21.621Z,1016.40
2019-02-05T05:56:21.597Z,1016.40
2019-02-05T05:57:21.592Z,1016.44
2019-02-05T05:58:23.369Z,1016.44
2019-02-05T05:59:21.566Z,1016.42
2019-02-05T06:00:21.763Z,1016.39
2019-02-05T06:01:21.549Z,1016.44
2019-02-05T06:02:21.539Z,1016.45
2019-02-05T06:03:21.530Z,1016.44
2019-02-05T06:04:21.519Z,1016.45
2019-02-05T06:05:21.508Z,1016.48
2019-02-05T06:06:21.497Z,1016.40
2019-02-05T06:07:21.491Z,1016.51
2019-02-05T06:08:21.482Z,1016.48
2019-02-05T06:09:21.471Z,1016.52
2019-02-05T06:10:21.660Z,1016.53
2019-02-05T06:12:21.435Z,1016.56
2019-02-05T06:13:21.424Z,1016.55
2019-02-05T06:14:21.621Z,1016.52
2019-02-05T06:15:21.404Z,1016.58
2019-02-05T06:16:21.395Z,1016.60
2019-02-05T06:18:21.378Z,1016.61
2019-02-05T06:21:21.345Z,1016.59
2019-02-05T06:22:21.332Z,1016.58
2019-02-05T06:23:21.328Z,1016.60
2019-02-05T06:24:21.317Z,1016.61
2019-02-05T06:25:21.303Z,1016.72
2019-02-05T06:26:21.296Z,1016.71
2019-02-05T06:27:21.281Z,1016.66
2019-02-05T06:28:21.269Z,1016.67
2019-02-05T06:29:21.258Z,1016.65
2019-02-05T06:30:21.251Z,1016.65
2019-02-05T06:31:21.238Z,1016.65
2019-02-05T06:33:23.549Z,1016.68
2019-02-05T06:34:21.207Z,1016.66
2019-02-05T06:35:21.197Z,1016.64
2019-02-05T06:36:21.193Z,1016.62
2019-02-05T06:37:21.181Z,1016.68
2019-02-05T06:38:21.172Z,1016.72
2019-02-05T06:39:21.163Z,1016.71
2019-02-05T06:40:21.156Z,1016.68
2019-02-05T06:41:21.135Z,1016.65
2019-02-05T06:42:21.131Z,1016.70
2019-02-05T06:43:21.122Z,1016.72
2019-02-05T06:44:21.112Z,1016.79
2019-02-05T06:45:21.096Z,1016.70
2019-02-05T06:46:21.089Z,1016.78
2019-02-05T06:47:21.076Z,1016.81
2019-02-05T06:48:21.070Z,1016.89
2019-02-05T06:49:21.057Z,1016.81
2019-02-05T06:50:21.050Z,1016.83
2019-02-05T06:51:21.040Z,1016.82
2019-02-05T06:52:21.023Z,1016.85
2019-02-05T06:53:21.018Z,1016.88
2019-02-05T06:54:21.004Z,1016.88
2019-02-05T06:55:20.995Z,1016.87
2019-02-05T06:56:20.983Z,1016.89
2019-02-05T06:57:20.971Z,1016.83
2019-02-05T06:58:20.966Z,1016.84
2019-02-05T06:59:20.959Z,1016.95
2019-02-05T07:00:20.942Z,1016.91
2019-02-05T07:01:20.938Z,1016.85
2019-02-05T07:02:20.924Z,1016.97
2019-02-05T07:03:20.913Z,1016.88
2019-02-05T07:04:20.903Z,1016.92
2019-02-05T07:05:20.892Z,1016.96
2019-02-05T07:06:20.880Z,1016.96
2019-02-05T07:07:20.874Z,1016.95
2019-02-05T07:09:20.853Z,1016.98
2019-02-05T07:10:20.841Z,1016.99
2019-02-05T07:11:20.836Z,1016.97
2019-02-05T07:12:20.823Z,1016.96
2019-02-05T07:13:20.809Z,1016.97
2019-02-05T07:14:20.804Z,1017.09
2019-02-05T07:16:20.779Z,1017.04
2019-02-05T07:17:20.771Z,1017.05
2019-02-05T07:18:20.760Z,1017.07
2019-02-05T07:19:20.751Z,1017.07
2019-02-05T07:20:20.740Z,1017.08
2019-02-05T07:21:20.728Z,1017.07
2019-02-05T07:22:20.720Z,1017.10
2019-02-05T07:23:20.802Z,1017.09
2019-02-05T07:24:20.707Z,1017.08
2019-02-05T07:25:20.690Z,1017.08
2019-02-05T07:26:20.681Z,1017.10
2019-02-05T07:27:20.675Z,1017.10
2019-02-05T07:28:20.663Z,1017.13
2019-02-05T07:29:20.645Z,1017.12
2019-02-05T07:30:20.639Z,1017.18
2019-02-05T07:31:20.633Z,1017.09
2019-02-05T07:32:20.616Z,1017.14
2019-02-05T07:33:20.606Z,1017.16
2019-02-05T07:34:21.302Z,1017.16
2019-02-05T07:35:20.599Z,1017.16
2019-02-05T07:36:20.578Z,1017.18
2019-02-05T07:37:20.566Z,1017.18
2019-02-05T07:38:20.557Z,1017.26
2019-02-05T07:39:20.552Z,1017.26
2019-02-05T07:40:20.543Z,1017.26
2019-02-05T07:41:20.527Z,1017.28
2019-02-05T07:42:20.522Z,1017.28
2019-02-05T07:43:20.509Z,1017.26
2019-02-05T07:44:20.500Z,1017.27
2019-02-05T07:45:20.611Z,1017.28
2019-02-05T07:46:20.478Z,1017.28
2019-02-05T07:47:23.416Z,1017.35
2019-02-05T07:48:20.461Z,1017.35
2019-02-05T07:49:20.451Z,1017.29
2019-02-05T07:50:20.438Z,1017.35
2019-02-05T07:51:20.426Z,1017.35
2019-02-05T07:52:20.419Z,1017.36
2019-02-05T07:53:20.405Z,1017.36
2019-02-05T07:54:20.401Z,1017.40
2019-02-05T07:55:20.385Z,1017.41
2019-02-05T07:56:20.379Z,1017.43
2019-02-05T07:57:20.363Z,1017.46
2019-02-05T07:58:20.359Z,1017.50
2019-02-05T07:59:20.345Z,1017.47
2019-02-05T08:00:20.342Z,1017.54
2019-02-05T08:01:20.323Z,1017.54
2019-02-05T08:02:20.315Z,1017.52
2019-02-05T08:03:20.303Z,1017.57
2019-02-05T08:04:20.302Z,1017.56
2019-02-05T08:05:20.285Z,1017.58
2019-02-05T08:06:20.279Z,1017.61
2019-02-05T08:07:20.270Z,1017.65
2019-02-05T08:08:20.261Z,1017.57
2019-02-05T08:09:20.246Z,1017.64
2019-02-05T08:10:20.239Z,1017.66
2019-02-05T08:11:20.225Z,1017.71
2019-02-05T08:12:20.222Z,1017.64
2019-02-05T08:13:20.211Z,1017.70
2019-02-05T08:14:20.197Z,1017.73
2019-02-05T08:15:20.192Z,1017.76
2019-02-05T08:16:20.181Z,1017.76
2019-02-05T08:17:20.165Z,1017.80
2019-02-05T08:18:20.163Z,1017.79
2019-02-05T08:19:20.145Z,1017.87
2019-02-05T08:20:20.137Z,1017.87
2019-02-05T08:21:20.130Z,1017.82
2019-02-05T08:22:20.118Z,1017.84
2019-02-05T08:23:20.107Z,1017.79
2019-02-05T08:24:20.097Z,1017.80
2019-02-05T08:25:20.088Z,1017.82
2019-02-05T08:26:20.081Z,1017.84
2019-02-05T08:27:20.068Z,1017.82
2019-02-05T08:28:20.057Z,1017.77
2019-02-05T08:29:21.684Z,1017.78
2019-02-05T08:30:20.044Z,1017.86
2019-02-05T08:31:20.034Z,1017.83
2019-02-05T08:32:20.020Z,1017.79
2019-02-05T08:33:20.015Z,1017.80
2019-02-05T08:34:19.998Z,1017.81
2019-02-05T08:35:19.996Z,1017.81
2019-02-05T08:36:19.984Z,1017.83
2019-02-05T08:37:19.973Z,1017.80
2019-02-05T08:38:19.966Z,1017.82
2019-02-05T08:39:19.951Z,1017.83
2019-02-05T08:40:19.942Z,1017.87
2019-02-05T08:41:19.931Z,1017.88
2019-02-05T08:42:19.927Z,1017.86
2019-02-05T08:43:19.910Z,1017.90
2019-02-05T08:44:19.902Z,1017.98
2019-02-05T08:45:19.895Z,1017.94
2019-02-05T08:46:19.887Z,1017.91
2019-02-05T08:47:19.871Z,1017.96
2019-02-05T08:48:19.869Z,1017.95
2019-02-05T08:49:19.857Z,1018.02
2019-02-05T08:50:19.839Z,1018.03
2019-02-05T08:51:19.836Z,1018.02
2019-02-05T08:52:19.824Z,1018.04
2019-02-05T08:53:19.814Z,1018.03
2019-02-05T08:54:19.801Z,1018.05
2019-02-05T08:55:19.795Z,1018.08
2019-02-05T08:56:19.789Z,1018.09
2019-02-05T08:57:19.772Z,1018.07
2019-02-05T08:58:30.348Z,1018.09
2019-02-05T08:59:19.753Z,1018.06
2019-02-05T09:00:19.748Z,1018.13
2019-02-05T09:01:19.735Z,1018.08
2019-02-05T09:02:19.726Z,1018.11
2019-02-05T09:03:19.719Z,1018.15
2019-02-05T09:04:19.708Z,1018.10
2019-02-05T09:05:19.699Z,1018.10
2019-02-05T09:06:19.694Z,1018.08
2019-02-05T09:07:19.681Z,1018.08
2019-02-05T09:08:19.667Z,1018.10
2019-02-05T09:09:19.666Z,1018.12
2019-02-05T09:10:19.647Z,1018.14
2019-02-05T09:11:19.643Z,1018.15
2019-02-05T09:12:19.635Z,1018.13
2019-02-05T09:13:19.624Z,1018.12
2019-02-05T09:14:19.614Z,1018.19
2019-02-05T09:15:29.137Z,1018.21
2019-02-05T09:16:19.593Z,1018.24
2019-02-05T09:17:19.584Z,1018.25
2019-02-05T09:18:19.577Z,1018.25
2019-02-05T09:19:19.561Z,1018.30
2019-02-05T09:20:19.559Z,1018.28
2019-02-05T09:21:19.544Z,1018.34
2019-02-05T09:22:19.532Z,1018.38
2019-02-05T09:23:19.523Z,1018.38
2019-02-05T09:24:19.518Z,1018.36
2019-02-05T09:25:19.505Z,1018.39
2019-02-05T09:26:19.503Z,1018.42
2019-02-05T09:27:19.491Z,1018.41
2019-02-05T09:28:19.483Z,1018.43
2019-02-05T09:29:19.465Z,1018.42
2019-02-05T09:30:19.463Z,1018.46
2019-02-05T09:31:19.447Z,1018.48
2019-02-05T09:32:19.441Z,1018.57
2019-02-05T09:33:19.433Z,1018.48
2019-02-05T09:34:19.426Z,1018.42
2019-02-05T09:35:19.408Z,1018.48
2019-02-05T09:36:19.402Z,1018.49
2019-02-05T09:37:19.389Z,1018.48
2019-02-05T09:38:19.383Z,1018.49
2019-02-05T09:39:19.376Z,1018.51
2019-02-05T09:40:19.369Z,1018.53
2019-02-05T09:41:19.354Z,1018.50
2019-02-05T09:42:19.347Z,1018.53
2019-02-05T09:43:19.340Z,1018.60
2019-02-05T09:44:19.338Z,1018.56
2019-02-05T09:45:19.313Z,1018.58
2019-02-05T09:46:19.308Z,1018.64
2019-02-05T09:47:19.340Z,1018.60
2019-02-05T09:48:19.292Z,1018.61
2019-02-05T09:49:19.278Z,1018.66
2019-02-05T09:50:19.267Z,1018.66
2019-02-05T09:51:19.262Z,1018.67
2019-02-05T09:52:19.256Z,1018.68
2019-02-05T09:53:19.243Z,1018.71
2019-02-05T09:55:19.221Z,1018.72
2019-02-05T09:56:19.219Z,1018.71
2019-02-05T09:57:19.201Z,1018.72
2019-02-05T09:58:19.193Z,1018.75
2019-02-05T09:59:19.183Z,1018.74
2019-02-05T10:00:19.176Z,1018.73
2019-02-05T10:01:19.172Z,1018.77
2019-02-05T10:02:19.157Z,1018.75
2019-02-05T10:03:19.148Z,1018.72
2019-02-05T10:04:19.141Z,1018.74
2019-02-05T10:05:19.135Z,1018.75
2019-02-05T10:06:19.120Z,1018.76
2019-02-05T10:07:19.114Z,1018.81
2019-02-05T10:08:19.107Z,1018.86
2019-02-05T10:09:52.303Z,1018.85
2019-02-05T10:10:19.134Z,1018.89
2019-02-05T10:11:19.077Z,1018.83
2019-02-05T10:12:19.068Z,1018.90
2019-02-05T10:13:19.054Z,1018.87
2019-02-05T10:14:19.053Z,1018.92
2019-02-05T10:15:19.038Z,1018.97
2019-02-05T10:16:19.030Z,1018.93
2019-02-05T10:17:19.025Z,1018.96
2019-02-05T10:18:19.010Z,1018.95
2019-02-05T10:19:19.008Z,1018.97
2019-02-05T10:20:18.991Z,1018.96
2019-02-05T10:21:18.984Z,1018.95
2019-02-05T10:22:18.981Z,1018.95
2019-02-05T10:23:18.969Z,1018.93
2019-02-05T10:24:18.959Z,1018.93
2019-02-05T10:25:18.945Z,1018.97
2019-02-05T10:26:18.944Z,1018.94
2019-02-05T10:27:18.930Z,1018.96
2019-02-05T10:28:18.919Z,1019.02
2019-02-05T10:29:18.913Z,1019.01
2019-02-05T10:30:18.900Z,1019.07
2019-02-05T10:31:18.891Z,1019.09
2019-02-05T10:32:18.883Z,1019.07
2019-02-05T10:33:18.874Z,1019.04
2019-02-05T10:34:18.872Z,1019.02
2019-02-05T10:35:18.855Z,1019.01
2019-02-05T10:36:18.847Z,1019.01
2019-02-05T10:37:18.844Z,1019.06
2019-02-05T10:38:18.831Z,1018.98
2019-02-05T10:39:18.822Z,1019.03
2019-02-05T10:40:18.817Z,1018.99
2019-02-05T10:41:18.802Z,1019.00
2019-02-05T10:42:18.804Z,1018.96
2019-02-05T10:43:18.793Z,1018.94
2019-02-05T10:44:18.785Z,1018.95
2019-02-05T10:45:18.774Z,1018.96
2019-02-05T10:46:18.764Z,1018.92
2019-02-05T10:47:18.755Z,1018.92
2019-02-05T10:48:18.743Z,1018.93
2019-02-05T10:49:18.737Z,1018.96
2019-02-05T10:50:18.722Z,1018.95
2019-02-05T10:51:18.720Z,1018.96
2019-02-05T10:52:18.715Z,1019.00
2019-02-05T10:53:18.703Z,1018.95
2019-02-05T10:54:18.696Z,1019.04
2019-02-05T10:55:18.685Z,1018.98
2019-02-05T10:56:18.676Z,1018.98
2019-02-05T10:57:18.667Z,1018.95
2019-02-05T10:58:18.656Z,1018.95
2019-02-05T10:59:18.854Z,1018.98
2019-02-05T11:00:18.641Z,1018.98
2019-02-05T11:01:18.834Z,1018.96
2019-02-05T11:02:18.621Z,1018.95
2019-02-05T11:03:18.614Z,1019.03
2019-02-05T11:04:18.607Z,1018.96
2019-02-05T11:05:18.601Z,1018.97
2019-02-05T11:06:20.186Z,1019.02
2019-02-05T11:07:18.581Z,1019.01
2019-02-05T11:08:18.575Z,1019.00
2019-02-05T11:09:18.563Z,1018.98
2019-02-05T11:10:18.556Z,1019.00
2019-02-05T11:11:18.549Z,1018.98
2019-02-05T11:12:18.540Z,1018.98
2019-02-05T11:13:18.998Z,1019.00
2019-02-05T11:14:18.520Z,1019.02
2019-02-05T11:15:18.506Z,1018.96
2019-02-05T11:16:18.505Z,1018.94
2019-02-05T11:17:18.490Z,1018.96
2019-02-05T11:18:18.486Z,1018.92
2019-02-05T11:19:18.478Z,1018.93
2019-02-05T11:20:18.464Z,1018.89
2019-02-05T11:21:18.458Z,1018.93
2019-02-05T11:22:18.445Z,1018.88
2019-02-05T11:23:18.438Z,1018.88
2019-02-05T11:24:18.432Z,1018.84
2019-02-05T11:25:18.419Z,1018.82
2019-02-05T11:26:18.417Z,1018.78
2019-02-05T11:27:18.410Z,1018.81
2019-02-05T11:28:18.400Z,1018.79
2019-02-05T11:29:18.391Z,1018.80
2019-02-05T11:30:20.292Z,1018.83
2019-02-05T11:31:18.370Z,1018.82
2019-02-05T11:32:18.362Z,1018.85
2019-02-05T11:33:18.358Z,1018.79
2019-02-05T11:34:18.343Z,1018.87
2019-02-05T11:35:18.336Z,1018.84
2019-02-05T11:36:18.333Z,1018.83
2019-02-05T11:37:18.317Z,1018.87
2019-02-05T11:38:18.311Z,1018.83
2019-02-05T11:39:18.307Z,1018.84
2019-02-05T11:40:18.298Z,1018.91
2019-02-05T11:41:18.286Z,1018.87
2019-02-05T11:42:18.275Z,1018.85
2019-02-05T11:43:18.270Z,1018.86
2019-02-05T11:44:18.260Z,1018.82
2019-02-05T11:45:18.268Z,1018.84
2019-02-05T11:46:18.243Z,1018.81
2019-02-05T11:47:18.238Z,1018.82
2019-02-05T11:48:18.229Z,1018.80
2019-02-05T11:49:18.218Z,1018.81
2019-02-05T11:50:18.214Z,1018.84
2019-02-05T11:51:18.200Z,1018.82
2019-02-05T11:52:18.191Z,1018.86
2019-02-05T11:53:18.185Z,1018.81
2019-02-05T11:54:18.172Z,1018.84
2019-02-05T11:55:18.166Z,1018.83
2019-02-05T11:56:18.156Z,1018.88
2019-02-05T11:57:18.153Z,1018.89
2019-02-05T11:58:18.144Z,1018.85
2019-02-05T11:59:18.133Z,1018.87
2019-02-05T12:00:18.124Z,1018.84
2019-02-05T12:01:18.112Z,1018.87
2019-02-05T12:02:18.106Z,1018.90
2019-02-05T12:03:18.099Z,1018.90
2019-02-05T12:04:18.093Z,1018.89
2019-02-05T12:05:18.080Z,1018.91
2019-02-05T12:06:18.074Z,1018.85
2019-02-05T12:07:18.070Z,1018.87
2019-02-05T12:08:18.784Z,1018.89
2019-02-05T12:09:18.046Z,1018.85
2019-02-05T12:10:18.040Z,1018.82
2019-02-05T12:11:18.027Z,1018.85
2019-02-05T12:12:18.020Z,1018.85
2019-02-05T12:13:18.011Z,1018.87
2019-02-05T12:14:18.009Z,1018.84
2019-02-05T12:15:17.993Z,1018.85
2019-02-05T12:16:17.992Z,1018.83
2019-02-05T12:17:17.982Z,1018.82
2019-02-05T12:18:17.972Z,1018.80
2019-02-05T12:19:17.960Z,1018.82
2019-02-05T12:20:17.951Z,1018.80
2019-02-05T12:21:17.944Z,1018.76
2019-02-05T12:22:17.936Z,1018.73
2019-02-05T12:23:17.929Z,1018.71
2019-02-05T12:24:17.919Z,1018.74
2019-02-05T12:25:17.915Z,1018.74
2019-02-05T12:26:17.907Z,1018.74
2019-02-05T12:27:20.291Z,1018.73
2019-02-05T12:28:17.886Z,1018.79
2019-02-05T12:29:17.879Z,1018.73
2019-02-05T12:30:17.871Z,1018.76
2019-02-05T12:31:17.862Z,1018.81
2019-02-05T12:32:17.855Z,1018.76
2019-02-05T12:33:17.845Z,1018.76
2019-02-05T12:34:17.839Z,1018.76
2019-02-05T12:35:17.831Z,1018.78
2019-02-05T12:36:17.821Z,1018.82
2019-02-05T12:37:17.813Z,1018.81
2019-02-05T12:38:17.807Z,1018.80